sensor_id;sensor_type;location;lat;lon;timestamp;temperature;humidity
10903;DHT22;5504;47.312;11.060;2023-08-30T00:01:35;14.30;96.60
10903;DHT22;5504;47.312;11.060;2023-08-30T00:04:00;14.30;96.90
10903;DHT22;5504;47.312;11.060;2023-08-30T00:06:26;14.30;97.00
10903;DHT22;5504;47.312;11.060;2023-08-30T00:08:52;14.30;97.20
10903;DHT22;5504;47.312;11.060;2023-08-30T00:11:17;14.30;97.00
10903;DHT22;5504;47.312;11.060;2023-08-30T00:13:43;14.40;97.00
10903;DHT22;5504;47.312;11.060;2023-08-30T00:16:09;14.40;96.70
10903;DHT22;5504;47.312;11.060;2023-08-30T00:18:34;14.30;96.60
10903;DHT22;5504;47.312;11.060;2023-08-30T00:21:00;14.20;96.80
10903;DHT22;5504;47.312;11.060;2023-08-30T00:23:26;14.30;97.10
10903;DHT22;5504;47.312;11.060;2023-08-30T00:25:51;14.30;97.20
10903;DHT22;5504;47.312;11.060;2023-08-30T00:28:17;14.40;97.30
10903;DHT22;5504;47.312;11.060;2023-08-30T00:30:43;14.40;97.20
10903;DHT22;5504;47.312;11.060;2023-08-30T00:33:08;14.30;97.00
10903;DHT22;5504;47.312;11.060;2023-08-30T00:35:34;14.30;97.10
10903;DHT22;5504;47.312;11.060;2023-08-30T00:37:59;14.40;97.30
10903;DHT22;5504;47.312;11.060;2023-08-30T00:40:25;14.40;97.10
10903;DHT22;5504;47.312;11.060;2023-08-30T00:42:51;14.30;96.90
10903;DHT22;5504;47.312;11.060;2023-08-30T00:45:18;14.30;97.00
10903;DHT22;5504;47.312;11.060;2023-08-30T00:47:43;14.20;97.00
10903;DHT22;5504;47.312;11.060;2023-08-30T00:50:09;14.20;97.00
10903;DHT22;5504;47.312;11.060;2023-08-30T00:52:35;14.20;97.00
10903;DHT22;5504;47.312;11.060;2023-08-30T00:55:01;14.10;97.20
10903;DHT22;5504;47.312;11.060;2023-08-30T00:57:27;14.30;97.40
10903;DHT22;5504;47.312;11.060;2023-08-30T00:59:54;14.10;97.00
10903;DHT22;5504;47.312;11.060;2023-08-30T01:02:20;14.10;97.10
10903;DHT22;5504;47.312;11.060;2023-08-30T01:04:45;14.10;97.10
10903;DHT22;5504;47.312;11.060;2023-08-30T01:07:11;14.10;97.20
10903;DHT22;5504;47.312;11.060;2023-08-30T01:09:37;14.10;97.50
10903;DHT22;5504;47.312;11.060;2023-08-30T01:12:20;14.20;97.40
10903;DHT22;5504;47.312;11.060;2023-08-30T01:14:56;14.20;97.20
10903;DHT22;5504;47.312;11.060;2023-08-30T01:17:24;14.30;97.30
10903;DHT22;5504;47.312;11.060;2023-08-30T01:26:04;14.20;96.90
10903;DHT22;5504;47.312;11.060;2023-08-30T01:28:34;14.10;97.30
10903;DHT22;5504;47.312;11.060;2023-08-30T01:31:02;14.20;97.40
10903;DHT22;5504;47.312;11.060;2023-08-30T01:33:29;14.20;97.30
10903;DHT22;5504;47.312;11.060;2023-08-30T01:35:58;14.10;97.10
10903;DHT22;5504;47.312;11.060;2023-08-30T01:38:26;14.00;97.10
10903;DHT22;5504;47.312;11.060;2023-08-30T01:40:54;13.90;97.20
10903;DHT22;5504;47.312;11.060;2023-08-30T01:43:20;14.00;97.60
10903;DHT22;5504;47.312;11.060;2023-08-30T01:45:47;14.00;97.60
10903;DHT22;5504;47.312;11.060;2023-08-30T01:48:15;14.10;97.70
10903;DHT22;5504;47.312;11.060;2023-08-30T01:50:42;14.00;97.40
10903;DHT22;5504;47.312;11.060;2023-08-30T01:53:11;14.00;97.50
10903;DHT22;5504;47.312;11.060;2023-08-30T01:55:37;14.00;97.60
10903;DHT22;5504;47.312;11.060;2023-08-30T01:58:05;14.00;97.60
10903;DHT22;5504;47.312;11.060;2023-08-30T02:00:30;14.10;97.40
10903;DHT22;5504;47.312;11.060;2023-08-30T02:02:56;14.10;97.50
10903;DHT22;5504;47.312;11.060;2023-08-30T02:05:22;14.00;97.20
10903;DHT22;5504;47.312;11.060;2023-08-30T02:07:58;14.10;97.40
10903;DHT22;5504;47.312;11.060;2023-08-30T02:10:34;14.10;97.40
10903;DHT22;5504;47.312;11.060;2023-08-30T02:13:02;14.10;97.20
10903;DHT22;5504;47.312;11.060;2023-08-30T02:15:29;14.00;97.00
10903;DHT22;5504;47.312;11.060;2023-08-30T02:17:56;14.00;97.10
10903;DHT22;5504;47.312;11.060;2023-08-30T02:20:23;14.00;97.40
10903;DHT22;5504;47.312;11.060;2023-08-30T02:22:48;13.90;97.30
10903;DHT22;5504;47.312;11.060;2023-08-30T02:25:14;13.90;97.50
10903;DHT22;5504;47.312;11.060;2023-08-30T02:27:40;13.90;97.50
10903;DHT22;5504;47.312;11.060;2023-08-30T02:30:07;13.90;97.60
10903;DHT22;5504;47.312;11.060;2023-08-30T02:32:33;13.90;97.50
10903;DHT22;5504;47.312;11.060;2023-08-30T02:34:59;14.00;97.60
10903;DHT22;5504;47.312;11.060;2023-08-30T02:37:25;14.00;97.60
10903;DHT22;5504;47.312;11.060;2023-08-30T02:39:51;14.10;97.60
10903;DHT22;5504;47.312;11.060;2023-08-30T02:42:17;14.10;97.40
10903;DHT22;5504;47.312;11.060;2023-08-30T02:44:42;14.10;97.20
10903;DHT22;5504;47.312;11.060;2023-08-30T02:47:08;13.90;96.90
10903;DHT22;5504;47.312;11.060;2023-08-30T02:49:34;13.90;97.20
10903;DHT22;5504;47.312;11.060;2023-08-30T02:52:00;14.00;97.40
10903;DHT22;5504;47.312;11.060;2023-08-30T02:54:25;14.00;97.50
10903;DHT22;5504;47.312;11.060;2023-08-30T02:56:51;14.10;97.50
10903;DHT22;5504;47.312;11.060;2023-08-30T02:59:17;14.10;97.60
10903;DHT22;5504;47.312;11.060;2023-08-30T03:01:42;14.20;97.50
10903;DHT22;5504;47.312;11.060;2023-08-30T03:04:08;14.10;97.30
10903;DHT22;5504;47.312;11.060;2023-08-30T03:06:34;14.00;97.10
10903;DHT22;5504;47.312;11.060;2023-08-30T03:09:01;13.90;97.20
10903;DHT22;5504;47.312;11.060;2023-08-30T03:11:28;13.90;97.50
10903;DHT22;5504;47.312;11.060;2023-08-30T03:13:54;14.00;97.70
10903;DHT22;5504;47.312;11.060;2023-08-30T03:16:20;14.00;97.70
10903;DHT22;5504;47.312;11.060;2023-08-30T03:18:46;14.00;97.50
10903;DHT22;5504;47.312;11.060;2023-08-30T03:21:13;13.90;97.60
10903;DHT22;5504;47.312;11.060;2023-08-30T03:23:39;13.90;97.40
10903;DHT22;5504;47.312;11.060;2023-08-30T03:26:13;13.90;97.50
10903;DHT22;5504;47.312;11.060;2023-08-30T03:28:40;13.90;97.70
10903;DHT22;5504;47.312;11.060;2023-08-30T03:31:16;13.80;97.50
10903;DHT22;5504;47.312;11.060;2023-08-30T03:33:42;13.90;97.90
10903;DHT22;5504;47.312;11.060;2023-08-30T03:36:10;14.00;98.00
10903;DHT22;5504;47.312;11.060;2023-08-30T03:38:37;14.00;98.00
10903;DHT22;5504;47.312;11.060;2023-08-30T03:41:03;14.00;97.80
10903;DHT22;5504;47.312;11.060;2023-08-30T03:43:30;14.10;97.60
10903;DHT22;5504;47.312;11.060;2023-08-30T03:45:56;14.10;97.40
10903;DHT22;5504;47.312;11.060;2023-08-30T03:48:22;13.90;97.10
10903;DHT22;5504;47.312;11.060;2023-08-30T03:50:48;13.90;97.20
10903;DHT22;5504;47.312;11.060;2023-08-30T03:53:13;13.90;97.20
10903;DHT22;5504;47.312;11.060;2023-08-30T03:55:40;13.80;97.20
10903;DHT22;5504;47.312;11.060;2023-08-30T03:58:06;13.80;97.50
10903;DHT22;5504;47.312;11.060;2023-08-30T04:00:32;13.80;97.60
10903;DHT22;5504;47.312;11.060;2023-08-30T04:02:57;13.80;97.80
10903;DHT22;5504;47.312;11.060;2023-08-30T04:05:23;13.80;97.90
10903;DHT22;5504;47.312;11.060;2023-08-30T04:07:49;13.80;97.90
10903;DHT22;5504;47.312;11.060;2023-08-30T04:10:15;13.90;98.00
10903;DHT22;5504;47.312;11.060;2023-08-30T04:12:40;14.00;98.00
10903;DHT22;5504;47.312;11.060;2023-08-30T04:15:06;13.90;97.60
10903;DHT22;5504;47.312;11.060;2023-08-30T04:17:32;13.80;97.60
10903;DHT22;5504;47.312;11.060;2023-08-30T04:19:58;13.80;97.90
10903;DHT22;5504;47.312;11.060;2023-08-30T04:22:24;13.90;98.00
10903;DHT22;5504;47.312;11.060;2023-08-30T04:24:49;13.90;97.80
10903;DHT22;5504;47.312;11.060;2023-08-30T04:27:15;14.00;98.00
10903;DHT22;5504;47.312;11.060;2023-08-30T04:29:41;13.90;97.70
10903;DHT22;5504;47.312;11.060;2023-08-30T04:32:10;13.80;97.40
10903;DHT22;5504;47.312;11.060;2023-08-30T04:34:36;13.70;97.30
10903;DHT22;5504;47.312;11.060;2023-08-30T04:37:02;13.80;97.60
10903;DHT22;5504;47.312;11.060;2023-08-30T04:39:28;13.90;97.70
10903;DHT22;5504;47.312;11.060;2023-08-30T04:41:54;13.80;97.90
10903;DHT22;5504;47.312;11.060;2023-08-30T04:44:21;13.80;97.80
10903;DHT22;5504;47.312;11.060;2023-08-30T04:46:50;13.80;97.70
10903;DHT22;5504;47.312;11.060;2023-08-30T04:49:17;13.80;97.90
10903;DHT22;5504;47.312;11.060;2023-08-30T04:51:43;13.90;98.00
10903;DHT22;5504;47.312;11.060;2023-08-30T04:54:09;13.90;97.90
10903;DHT22;5504;47.312;11.060;2023-08-30T04:56:35;14.00;98.00
10903;DHT22;5504;47.312;11.060;2023-08-30T04:59:00;14.00;97.70
10903;DHT22;5504;47.312;11.060;2023-08-30T05:01:29;13.90;97.50
10903;DHT22;5504;47.312;11.060;2023-08-30T05:03:55;13.80;97.60
10903;DHT22;5504;47.312;11.060;2023-08-30T05:06:21;13.90;97.80
10903;DHT22;5504;47.312;11.060;2023-08-30T05:08:46;14.00;97.90
10903;DHT22;5504;47.312;11.060;2023-08-30T05:11:12;14.10;98.00
10903;DHT22;5504;47.312;11.060;2023-08-30T05:13:38;14.10;97.80
10903;DHT22;5504;47.312;11.060;2023-08-30T05:16:04;14.20;97.90
10903;DHT22;5504;47.312;11.060;2023-08-30T05:18:30;14.10;97.70
10903;DHT22;5504;47.312;11.060;2023-08-30T05:20:56;14.10;97.50
10903;DHT22;5504;47.312;11.060;2023-08-30T05:23:21;14.10;97.60
10903;DHT22;5504;47.312;11.060;2023-08-30T05:25:47;14.00;97.50
10903;DHT22;5504;47.312;11.060;2023-08-30T05:28:13;14.10;97.80
10903;DHT22;5504;47.312;11.060;2023-08-30T05:30:42;14.00;97.70
10903;DHT22;5504;47.312;11.060;2023-08-30T05:33:07;14.00;97.90
10903;DHT22;5504;47.312;11.060;2023-08-30T05:35:33;14.10;98.10
10903;DHT22;5504;47.312;11.060;2023-08-30T05:37:59;14.00;97.20
10903;DHT22;5504;47.312;11.060;2023-08-30T05:40:25;14.00;97.50
10903;DHT22;5504;47.312;11.060;2023-08-30T05:42:50;14.00;97.30
10903;DHT22;5504;47.312;11.060;2023-08-30T05:45:16;14.00;97.40
10903;DHT22;5504;47.312;11.060;2023-08-30T05:47:42;14.20;97.90
10903;DHT22;5504;47.312;11.060;2023-08-30T05:50:08;14.20;97.90
10903;DHT22;5504;47.312;11.060;2023-08-30T05:52:35;14.30;98.00
10903;DHT22;5504;47.312;11.060;2023-08-30T05:55:01;14.30;97.80
10903;DHT22;5504;47.312;11.060;2023-08-30T05:57:26;14.40;97.90
10903;DHT22;5504;47.312;11.060;2023-08-30T05:59:58;14.60;98.10
10903;DHT22;5504;47.312;11.060;2023-08-30T06:02:24;14.60;98.10
10903;DHT22;5504;47.312;11.060;2023-08-30T06:04:50;14.70;98.10
10903;DHT22;5504;47.312;11.060;2023-08-30T06:07:15;14.80;97.90
10903;DHT22;5504;47.312;11.060;2023-08-30T06:09:42;14.80;97.60
10903;DHT22;5504;47.312;11.060;2023-08-30T06:12:08;14.90;97.50
10903;DHT22;5504;47.312;11.060;2023-08-30T06:14:34;15.00;97.50
10903;DHT22;5504;47.312;11.060;2023-08-30T06:16:59;15.00;97.00
10903;DHT22;5504;47.312;11.060;2023-08-30T06:19:25;15.10;97.00
10903;DHT22;5504;47.312;11.060;2023-08-30T06:21:51;15.10;97.00
10903;DHT22;5504;47.312;11.060;2023-08-30T06:24:16;15.00;96.20
10903;DHT22;5504;47.312;11.060;2023-08-30T06:26:42;15.00;96.00
10903;DHT22;5504;47.312;11.060;2023-08-30T06:29:08;15.10;96.50
10903;DHT22;5504;47.312;11.060;2023-08-30T06:31:33;15.20;96.40
10903;DHT22;5504;47.312;11.060;2023-08-30T06:33:59;15.30;96.50
10903;DHT22;5504;47.312;11.060;2023-08-30T06:36:25;15.30;96.00
10903;DHT22;5504;47.312;11.060;2023-08-30T06:38:51;15.40;96.40
10903;DHT22;5504;47.312;11.060;2023-08-30T06:41:17;15.50;96.30
10903;DHT22;5504;47.312;11.060;2023-08-30T06:43:42;15.60;96.10
10903;DHT22;5504;47.312;11.060;2023-08-30T06:46:08;15.60;95.90
10903;DHT22;5504;47.312;11.060;2023-08-30T06:48:34;15.60;95.80
10903;DHT22;5504;47.312;11.060;2023-08-30T06:50:59;15.60;95.70
10903;DHT22;5504;47.312;11.060;2023-08-30T06:53:26;15.70;95.60
10903;DHT22;5504;47.312;11.060;2023-08-30T06:56:02;15.50;95.50
10903;DHT22;5504;47.312;11.060;2023-08-30T06:58:28;15.60;95.90
10903;DHT22;5504;47.312;11.060;2023-08-30T07:00:53;15.60;95.80
10903;DHT22;5504;47.312;11.060;2023-08-30T07:03:19;15.80;96.20
10903;DHT22;5504;47.312;11.060;2023-08-30T07:05:45;15.90;95.90
10903;DHT22;5504;47.312;11.060;2023-08-30T07:08:14;16.00;95.70
10903;DHT22;5504;47.312;11.060;2023-08-30T07:10:40;16.10;95.50
10903;DHT22;5504;47.312;11.060;2023-08-30T07:13:05;16.20;94.90
10903;DHT22;5504;47.312;11.060;2023-08-30T07:15:38;16.30;95.30
10903;DHT22;5504;47.312;11.060;2023-08-30T07:18:05;16.40;94.60
10903;DHT22;5504;47.312;11.060;2023-08-30T07:20:31;16.40;94.20
10903;DHT22;5504;47.312;11.060;2023-08-30T07:22:57;16.40;94.30
10903;DHT22;5504;47.312;11.060;2023-08-30T07:25:22;16.50;94.70
10903;DHT22;5504;47.312;11.060;2023-08-30T07:27:49;16.50;93.60
10903;DHT22;5504;47.312;11.060;2023-08-30T07:30:15;16.60;93.90
10903;DHT22;5504;47.312;11.060;2023-08-30T07:32:41;16.50;93.00
10903;DHT22;5504;47.312;11.060;2023-08-30T07:35:07;16.60;92.90
10903;DHT22;5504;47.312;11.060;2023-08-30T07:37:34;16.50;92.70
10903;DHT22;5504;47.312;11.060;2023-08-30T07:40:00;16.40;93.00
10903;DHT22;5504;47.312;11.060;2023-08-30T07:42:25;16.40;93.30
10903;DHT22;5504;47.312;11.060;2023-08-30T07:44:51;16.50;93.80
10903;DHT22;5504;47.312;11.060;2023-08-30T07:47:17;16.50;93.90
10903;DHT22;5504;47.312;11.060;2023-08-30T07:49:43;16.50;93.20
10903;DHT22;5504;47.312;11.060;2023-08-30T07:52:08;16.60;93.80
10903;DHT22;5504;47.312;11.060;2023-08-30T07:54:37;16.60;93.20
10903;DHT22;5504;47.312;11.060;2023-08-30T07:57:04;16.70;93.00
10903;DHT22;5504;47.312;11.060;2023-08-30T07:59:32;16.70;92.70
10903;DHT22;5504;47.312;11.060;2023-08-30T08:01:58;16.90;92.60
10903;DHT22;5504;47.312;11.060;2023-08-30T08:04:23;17.20;92.50
10903;DHT22;5504;47.312;11.060;2023-08-30T08:06:49;17.50;92.70
10903;DHT22;5504;47.312;11.060;2023-08-30T08:09:14;17.70;91.40
10903;DHT22;5504;47.312;11.060;2023-08-30T08:11:41;18.00;91.00
10903;DHT22;5504;47.312;11.060;2023-08-30T08:14:09;18.00;87.60
10903;DHT22;5504;47.312;11.060;2023-08-30T08:16:36;17.90;90.30
10903;DHT22;5504;47.312;11.060;2023-08-30T08:19:02;18.30;90.30
10903;DHT22;5504;47.312;11.060;2023-08-30T08:21:28;18.60;90.60
10903;DHT22;5504;47.312;11.060;2023-08-30T08:23:54;19.00;90.30
10903;DHT22;5504;47.312;11.060;2023-08-30T08:26:20;18.90;87.40
10903;DHT22;5504;47.312;11.060;2023-08-30T08:28:46;19.10;85.00
10903;DHT22;5504;47.312;11.060;2023-08-30T08:31:11;19.10;82.80
10903;DHT22;5504;47.312;11.060;2023-08-30T08:33:37;19.40;86.20
10903;DHT22;5504;47.312;11.060;2023-08-30T08:36:03;19.70;88.00
10903;DHT22;5504;47.312;11.060;2023-08-30T08:38:29;19.90;85.70
10903;DHT22;5504;47.312;11.060;2023-08-30T08:41:02;20.10;86.30
10903;DHT22;5504;47.312;11.060;2023-08-30T08:43:29;19.50;79.80
10903;DHT22;5504;47.312;11.060;2023-08-30T08:46:00;19.30;82.60
10903;DHT22;5504;47.312;11.060;2023-08-30T08:48:28;19.30;82.20
10903;DHT22;5504;47.312;11.060;2023-08-30T08:50:56;19.50;83.60
10903;DHT22;5504;47.312;11.060;2023-08-30T08:53:22;19.50;82.00
10903;DHT22;5504;47.312;11.060;2023-08-30T08:55:49;19.60;81.80
10903;DHT22;5504;47.312;11.060;2023-08-30T08:58:15;19.70;85.30
10903;DHT22;5504;47.312;11.060;2023-08-30T09:00:44;19.80;85.40
10903;DHT22;5504;47.312;11.060;2023-08-30T09:03:10;19.60;80.50
10903;DHT22;5504;47.312;11.060;2023-08-30T09:05:40;19.60;84.10
10903;DHT22;5504;47.312;11.060;2023-08-30T09:08:06;19.80;84.60
10903;DHT22;5504;47.312;11.060;2023-08-30T09:10:34;19.80;82.80
10903;DHT22;5504;47.312;11.060;2023-08-30T09:13:01;19.80;84.40
10903;DHT22;5504;47.312;11.060;2023-08-30T09:15:34;19.90;82.40
10903;DHT22;5504;47.312;11.060;2023-08-30T09:18:00;19.80;84.50
10903;DHT22;5504;47.312;11.060;2023-08-30T09:20:25;20.00;84.20
10903;DHT22;5504;47.312;11.060;2023-08-30T09:22:51;20.20;84.70
10903;DHT22;5504;47.312;11.060;2023-08-30T09:25:26;20.20;85.50
10903;DHT22;5504;47.312;11.060;2023-08-30T09:27:57;20.10;83.00
10903;DHT22;5504;47.312;11.060;2023-08-30T09:30:24;19.50;75.00
10903;DHT22;5504;47.312;11.060;2023-08-30T09:32:49;19.20;76.10
10903;DHT22;5504;47.312;11.060;2023-08-30T09:35:15;19.60;81.80
10903;DHT22;5504;47.312;11.060;2023-08-30T09:37:41;19.90;81.90
10903;DHT22;5504;47.312;11.060;2023-08-30T09:40:09;19.80;77.70
10903;DHT22;5504;47.312;11.060;2023-08-30T09:42:40;19.40;75.00
10903;DHT22;5504;47.312;11.060;2023-08-30T09:45:17;19.60;80.30
10903;DHT22;5504;47.312;11.060;2023-08-30T09:47:50;19.10;74.50
10903;DHT22;5504;47.312;11.060;2023-08-30T09:50:19;19.10;72.50
10903;DHT22;5504;47.312;11.060;2023-08-30T09:52:49;19.30;77.00
10903;DHT22;5504;47.312;11.060;2023-08-30T09:55:16;19.60;75.00
10903;DHT22;5504;47.312;11.060;2023-08-30T09:57:43;19.80;77.90
10903;DHT22;5504;47.312;11.060;2023-08-30T10:00:10;19.70;75.80
10903;DHT22;5504;47.312;11.060;2023-08-30T10:02:43;19.80;76.70
10903;DHT22;5504;47.312;11.060;2023-08-30T10:05:10;20.10;79.20
10903;DHT22;5504;47.312;11.060;2023-08-30T10:07:37;20.30;75.20
10903;DHT22;5504;47.312;11.060;2023-08-30T10:10:04;20.40;77.10
10903;DHT22;5504;47.312;11.060;2023-08-30T10:12:31;20.40;73.10
10903;DHT22;5504;47.312;11.060;2023-08-30T10:14:58;20.10;70.80
10903;DHT22;5504;47.312;11.060;2023-08-30T10:17:27;20.30;77.70
10903;DHT22;5504;47.312;11.060;2023-08-30T10:19:53;20.40;73.90
10903;DHT22;5504;47.312;11.060;2023-08-30T10:22:21;20.20;76.20
10903;DHT22;5504;47.312;11.060;2023-08-30T10:24:58;20.40;76.00
10903;DHT22;5504;47.312;11.060;2023-08-30T10:27:26;20.10;70.40
10903;DHT22;5504;47.312;11.060;2023-08-30T10:29:53;20.30;75.80
10903;DHT22;5504;47.312;11.060;2023-08-30T10:32:20;20.40;74.70
10903;DHT22;5504;47.312;11.060;2023-08-30T10:34:50;20.60;75.30
10903;DHT22;5504;47.312;11.060;2023-08-30T10:37:16;20.60;74.90
10903;DHT22;5504;47.312;11.060;2023-08-30T10:39:43;20.60;72.80
10903;DHT22;5504;47.312;11.060;2023-08-30T10:42:15;20.60;70.10
10903;DHT22;5504;47.312;11.060;2023-08-30T10:44:51;20.20;65.80
10903;DHT22;5504;47.312;11.060;2023-08-30T10:47:29;20.30;73.10
10903;DHT22;5504;47.312;11.060;2023-08-30T10:49:55;20.30;72.60
10903;DHT22;5504;47.312;11.060;2023-08-30T10:52:22;20.50;75.60
10903;DHT22;5504;47.312;11.060;2023-08-30T10:54:47;20.60;74.80
10903;DHT22;5504;47.312;11.060;2023-08-30T10:57:15;20.50;71.20
10903;DHT22;5504;47.312;11.060;2023-08-30T11:00:11;20.50;72.10
10903;DHT22;5504;47.312;11.060;2023-08-30T11:02:42;20.40;71.30
10903;DHT22;5504;47.312;11.060;2023-08-30T11:05:08;20.40;71.90
10903;DHT22;5504;47.312;11.060;2023-08-30T11:07:35;20.40;72.50
10903;DHT22;5504;47.312;11.060;2023-08-30T11:10:01;20.30;72.10
10903;DHT22;5504;47.312;11.060;2023-08-30T11:12:29;20.50;74.30
10903;DHT22;5504;47.312;11.060;2023-08-30T11:14:56;20.30;72.80
10903;DHT22;5504;47.312;11.060;2023-08-30T11:17:22;20.50;75.20
10903;DHT22;5504;47.312;11.060;2023-08-30T11:19:56;20.40;72.60
10903;DHT22;5504;47.312;11.060;2023-08-30T11:22:23;20.30;74.60
10903;DHT22;5504;47.312;11.060;2023-08-30T11:24:49;20.50;74.30
10903;DHT22;5504;47.312;11.060;2023-08-30T11:27:18;20.50;75.20
10903;DHT22;5504;47.312;11.060;2023-08-30T11:29:44;20.80;74.20
10903;DHT22;5504;47.312;11.060;2023-08-30T11:32:10;20.70;72.40
10903;DHT22;5504;47.312;11.060;2023-08-30T11:34:36;20.90;72.60
10903;DHT22;5504;47.312;11.060;2023-08-30T11:37:01;21.00;74.30
10903;DHT22;5504;47.312;11.060;2023-08-30T11:39:30;21.20;74.40
10903;DHT22;5504;47.312;11.060;2023-08-30T11:41:59;21.40;75.60
10903;DHT22;5504;47.312;11.060;2023-08-30T11:44:28;21.70;77.20
10903;DHT22;5504;47.312;11.060;2023-08-30T11:47:00;21.70;67.20
10903;DHT22;5504;47.312;11.060;2023-08-30T11:49:29;21.50;70.10
10903;DHT22;5504;47.312;11.060;2023-08-30T11:51:55;21.60;73.20
10903;DHT22;5504;47.312;11.060;2023-08-30T11:54:26;22.00;75.20
10903;DHT22;5504;47.312;11.060;2023-08-30T11:56:52;22.30;71.20
10903;DHT22;5504;47.312;11.060;2023-08-30T11:59:21;21.60;67.70
10903;DHT22;5504;47.312;11.060;2023-08-30T12:01:52;21.00;69.00
10903;DHT22;5504;47.312;11.060;2023-08-30T12:04:18;20.40;68.80
10903;DHT22;5504;47.312;11.060;2023-08-30T12:06:53;20.80;71.20
10903;DHT22;5504;47.312;11.060;2023-08-30T12:09:19;20.60;66.10
10903;DHT22;5504;47.312;11.060;2023-08-30T12:11:49;20.90;72.00
10903;DHT22;5504;47.312;11.060;2023-08-30T12:14:15;21.10;68.30
10903;DHT22;5504;47.312;11.060;2023-08-30T12:16:41;21.30;72.10
10903;DHT22;5504;47.312;11.060;2023-08-30T12:19:10;21.60;70.10
10903;DHT22;5504;47.312;11.060;2023-08-30T12:21:40;21.70;66.80
10903;DHT22;5504;47.312;11.060;2023-08-30T12:24:07;21.10;65.00
10903;DHT22;5504;47.312;11.060;2023-08-30T12:26:33;21.20;71.40
10903;DHT22;5504;47.312;11.060;2023-08-30T12:28:58;21.10;65.80
10903;DHT22;5504;47.312;11.060;2023-08-30T12:31:24;20.70;67.50
10903;DHT22;5504;47.312;11.060;2023-08-30T12:33:50;21.40;75.60
10903;DHT22;5504;47.312;11.060;2023-08-30T12:36:15;21.30;69.20
10903;DHT22;5504;47.312;11.060;2023-08-30T12:38:41;21.90;69.60
10903;DHT22;5504;47.312;11.060;2023-08-30T12:41:07;22.40;69.40
10903;DHT22;5504;47.312;11.060;2023-08-30T12:43:32;22.30;69.80
10903;DHT22;5504;47.312;11.060;2023-08-30T12:45:58;23.00;64.70
10903;DHT22;5504;47.312;11.060;2023-08-30T12:48:24;23.50;68.50
10903;DHT22;5504;47.312;11.060;2023-08-30T12:50:49;23.80;65.10
10903;DHT22;5504;47.312;11.060;2023-08-30T12:53:15;24.00;63.60
10903;DHT22;5504;47.312;11.060;2023-08-30T12:55:44;23.20;59.60
10903;DHT22;5504;47.312;11.060;2023-08-30T12:58:09;23.50;67.30
10903;DHT22;5504;47.312;11.060;2023-08-30T13:00:37;23.80;64.40
10903;DHT22;5504;47.312;11.060;2023-08-30T13:03:02;24.00;63.50
10903;DHT22;5504;47.312;11.060;2023-08-30T13:05:32;24.20;62.10
10903;DHT22;5504;47.312;11.060;2023-08-30T13:07:59;23.10;60.00
10903;DHT22;5504;47.312;11.060;2023-08-30T13:10:26;23.50;61.00
10903;DHT22;5504;47.312;11.060;2023-08-30T13:12:51;24.00;65.20
10903;DHT22;5504;47.312;11.060;2023-08-30T13:15:17;24.30;63.40
10903;DHT22;5504;47.312;11.060;2023-08-30T13:17:43;24.60;68.10
10903;DHT22;5504;47.312;11.060;2023-08-30T13:20:09;24.50;61.60
10903;DHT22;5504;47.312;11.060;2023-08-30T13:22:35;24.30;60.80
10903;DHT22;5504;47.312;11.060;2023-08-30T13:25:02;23.80;61.40
10903;DHT22;5504;47.312;11.060;2023-08-30T13:27:31;23.60;64.00
10903;DHT22;5504;47.312;11.060;2023-08-30T13:29:57;23.70;64.00
10903;DHT22;5504;47.312;11.060;2023-08-30T13:32:23;23.50;60.70
10903;DHT22;5504;47.312;11.060;2023-08-30T13:34:50;22.80;59.50
10903;DHT22;5504;47.312;11.060;2023-08-30T13:37:16;22.20;60.80
10903;DHT22;5504;47.312;11.060;2023-08-30T13:39:44;22.70;66.50
10903;DHT22;5504;47.312;11.060;2023-08-30T13:42:10;22.40;62.00
10903;DHT22;5504;47.312;11.060;2023-08-30T13:44:36;22.50;65.70
10903;DHT22;5504;47.312;11.060;2023-08-30T13:47:05;22.70;66.20
10903;DHT22;5504;47.312;11.060;2023-08-30T13:49:31;23.00;66.30
10903;DHT22;5504;47.312;11.060;2023-08-30T13:51:57;23.00;64.90
10903;DHT22;5504;47.312;11.060;2023-08-30T13:54:23;23.00;65.00
10903;DHT22;5504;47.312;11.060;2023-08-30T13:56:49;23.00;64.70
10903;DHT22;5504;47.312;11.060;2023-08-30T13:59:15;23.00;64.60
10903;DHT22;5504;47.312;11.060;2023-08-30T14:01:41;22.90;63.20
10903;DHT22;5504;47.312;11.060;2023-08-30T14:04:08;23.00;66.90
10903;DHT22;5504;47.312;11.060;2023-08-30T14:06:33;22.90;65.50
10903;DHT22;5504;47.312;11.060;2023-08-30T14:08:59;22.10;59.80
10903;DHT22;5504;47.312;11.060;2023-08-30T14:11:25;22.30;65.70
10903;DHT22;5504;47.312;11.060;2023-08-30T14:13:51;22.20;65.80
10903;DHT22;5504;47.312;11.060;2023-08-30T14:16:16;22.20;63.60
10903;DHT22;5504;47.312;11.060;2023-08-30T14:18:43;22.10;66.70
10903;DHT22;5504;47.312;11.060;2023-08-30T14:21:09;22.10;65.80
10903;DHT22;5504;47.312;11.060;2023-08-30T14:23:34;22.00;70.20
10903;DHT22;5504;47.312;11.060;2023-08-30T14:26:05;22.00;73.90
10903;DHT22;5504;47.312;11.060;2023-08-30T14:28:41;21.60;65.40
10903;DHT22;5504;47.312;11.060;2023-08-30T14:31:08;21.50;66.80
10903;DHT22;5504;47.312;11.060;2023-08-30T14:33:34;21.50;71.30
10903;DHT22;5504;47.312;11.060;2023-08-30T14:35:59;21.50;73.10
10903;DHT22;5504;47.312;11.060;2023-08-30T14:38:28;21.40;71.40
10903;DHT22;5504;47.312;11.060;2023-08-30T14:41:00;21.40;69.40
10903;DHT22;5504;47.312;11.060;2023-08-30T14:43:26;21.30;71.30
10903;DHT22;5504;47.312;11.060;2023-08-30T14:45:59;21.20;71.80
10903;DHT22;5504;47.312;11.060;2023-08-30T14:48:25;21.10;77.80
10903;DHT22;5504;47.312;11.060;2023-08-30T14:50:51;21.00;71.90
10903;DHT22;5504;47.312;11.060;2023-08-30T14:53:16;20.80;72.00
10903;DHT22;5504;47.312;11.060;2023-08-30T14:55:44;20.80;78.40
10903;DHT22;5504;47.312;11.060;2023-08-30T14:58:10;20.80;80.20
10903;DHT22;5504;47.312;11.060;2023-08-30T15:00:36;20.60;75.80
10903;DHT22;5504;47.312;11.060;2023-08-30T15:03:02;20.60;76.10
10903;DHT22;5504;47.312;11.060;2023-08-30T15:05:27;20.50;75.90
10903;DHT22;5504;47.312;11.060;2023-08-30T15:07:53;20.20;75.50
10903;DHT22;5504;47.312;11.060;2023-08-30T15:10:19;20.30;77.20
10903;DHT22;5504;47.312;11.060;2023-08-30T15:12:44;20.30;78.10
10903;DHT22;5504;47.312;11.060;2023-08-30T15:15:10;20.50;82.20
10903;DHT22;5504;47.312;11.060;2023-08-30T15:17:36;20.60;81.70
10903;DHT22;5504;47.312;11.060;2023-08-30T15:20:02;20.80;83.90
10903;DHT22;5504;47.312;11.060;2023-08-30T15:22:29;20.80;79.60
10903;DHT22;5504;47.312;11.060;2023-08-30T15:24:57;20.80;78.70
10903;DHT22;5504;47.312;11.060;2023-08-30T15:27:23;20.70;75.60
10903;DHT22;5504;47.312;11.060;2023-08-30T15:29:48;20.70;76.50
10903;DHT22;5504;47.312;11.060;2023-08-30T15:32:19;20.70;74.80
10903;DHT22;5504;47.312;11.060;2023-08-30T15:34:45;20.60;73.70